createdAt,value
2018-05-13T00:00:11.290Z,0.00
2018-05-13T00:01:12.105Z,0.00
2018-05-13T00:02:11.201Z,0.00
2018-05-13T00:03:11.185Z,0.00
2018-05-13T00:04:11.153Z,0.00
2018-05-13T00:05:11.274Z,0.00
2018-05-13T00:06:11.102Z,0.00
2018-05-13T00:07:11.079Z,0.00
2018-05-13T00:08:11.058Z,0.00
2018-05-13T00:09:11.027Z,0.00
2018-05-13T00:10:11.051Z,0.00
2018-05-13T00:11:11.029Z,0.00
2018-05-13T00:12:10.954Z,0.00
2018-05-13T00:13:10.934Z,0.00
2018-05-13T00:14:10.959Z,0.00
2018-05-13T00:15:10.892Z,0.00
2018-05-13T00:16:10.862Z,0.00
2018-05-13T00:17:10.836Z,0.00
2018-05-13T00:18:10.870Z,0.00
2018-05-13T00:19:10.782Z,0.00
2018-05-13T00:20:10.756Z,0.00
2018-05-13T00:21:10.733Z,0.00
2018-05-13T00:22:10.714Z,0.00
2018-05-13T00:23:10.742Z,0.00
2018-05-13T00:24:10.658Z,0.00
2018-05-13T00:25:10.634Z,0.00
2018-05-13T00:26:10.614Z,0.00
2018-05-13T00:27:10.618Z,0.00
2018-05-13T00:28:12.515Z,0.00
2018-05-13T00:29:10.537Z,0.00
2018-05-13T00:30:10.511Z,0.00
2018-05-13T00:31:10.484Z,0.00
2018-05-13T00:32:10.512Z,0.00
2018-05-13T00:33:10.438Z,0.00
2018-05-13T00:34:10.461Z,0.00
2018-05-13T00:35:10.381Z,0.00
2018-05-13T00:36:10.357Z,0.00
2018-05-13T00:37:10.335Z,0.00
2018-05-13T00:38:10.385Z,0.00
2018-05-13T00:39:10.285Z,0.00
2018-05-13T00:40:10.259Z,0.00
2018-05-13T00:41:10.243Z,0.00
2018-05-13T00:42:10.209Z,0.00
2018-05-13T00:43:10.243Z,0.00
2018-05-13T00:44:10.168Z,0.00
2018-05-13T00:45:10.136Z,0.00
2018-05-13T00:46:10.168Z,0.00
2018-05-13T00:47:10.088Z,0.00
2018-05-13T00:48:10.060Z,0.00
2018-05-13T00:49:10.042Z,0.00
2018-05-13T00:50:10.008Z,0.00
2018-05-13T00:51:10.022Z,0.00
2018-05-13T00:52:09.969Z,0.00
2018-05-13T00:53:09.946Z,0.00
2018-05-13T00:54:09.919Z,0.00
2018-05-13T00:55:09.932Z,0.00
2018-05-13T00:56:09.865Z,0.00
2018-05-13T00:57:09.852Z,0.00
2018-05-13T00:58:09.812Z,0.00
2018-05-13T00:59:09.782Z,0.00
2018-05-13T01:00:09.820Z,0.00
2018-05-13T01:01:09.734Z,0.00
2018-05-13T01:02:09.706Z,0.00
2018-05-13T01:03:09.684Z,0.00
2018-05-13T01:04:09.670Z,0.00
2018-05-13T01:05:09.677Z,0.00
2018-05-13T01:06:09.653Z,0.00
2018-05-13T01:07:09.734Z,0.00
2018-05-13T01:08:09.562Z,0.00
2018-05-13T01:09:09.530Z,0.00
2018-05-13T01:10:09.560Z,0.00
2018-05-13T01:11:09.479Z,0.00
2018-05-13T01:12:09.454Z,0.00
2018-05-13T01:13:09.428Z,0.00
2018-05-13T01:14:09.408Z,0.00
2018-05-13T01:15:09.422Z,0.00
2018-05-13T01:16:09.401Z,0.00
2018-05-13T01:17:09.333Z,0.00
2018-05-13T01:18:09.308Z,0.00
2018-05-13T01:19:09.288Z,0.00
2018-05-13T01:20:09.258Z,0.00
2018-05-13T01:21:09.337Z,0.00
2018-05-13T01:22:09.209Z,0.00
2018-05-13T01:23:09.176Z,0.00
2018-05-13T01:24:09.156Z,0.00
2018-05-13T01:25:09.135Z,0.00
2018-05-13T01:26:09.153Z,0.00
2018-05-13T01:27:09.136Z,0.00
2018-05-13T01:28:09.099Z,0.00
2018-05-13T01:29:09.038Z,0.00
2018-05-13T01:30:09.005Z,0.00
2018-05-13T01:31:08.978Z,0.00
2018-05-13T01:32:08.992Z,0.00
2018-05-13T01:33:08.979Z,0.00
2018-05-13T01:34:08.906Z,0.00
2018-05-13T01:35:08.923Z,0.00
2018-05-13T01:36:08.850Z,0.00
2018-05-13T01:37:08.873Z,0.00
2018-05-13T01:38:08.809Z,0.00
2018-05-13T01:39:08.777Z,0.00
2018-05-13T01:40:08.770Z,0.00
2018-05-13T01:41:08.732Z,0.00
2018-05-13T01:42:08.762Z,0.00
2018-05-13T01:43:08.674Z,0.00
2018-05-13T01:44:08.653Z,0.00
2018-05-13T01:45:08.630Z,0.00
2018-05-13T01:46:08.609Z,0.00
2018-05-13T01:47:08.630Z,0.00
2018-05-13T01:48:08.556Z,0.00
2018-05-13T01:49:08.527Z,0.00
2018-05-13T01:50:08.503Z,0.00
2018-05-13T01:51:08.478Z,0.00
2018-05-13T01:52:08.501Z,0.00
2018-05-13T01:53:08.475Z,0.00
2018-05-13T01:54:08.393Z,0.00
2018-05-13T01:55:08.372Z,0.00
2018-05-13T01:56:08.352Z,0.00
2018-05-13T01:57:08.320Z,0.00
2018-05-13T01:58:08.338Z,0.00
2018-05-13T01:59:08.277Z,0.00
2018-05-13T02:00:08.246Z,0.00
2018-05-13T02:01:08.253Z,0.00
2018-05-13T02:02:08.201Z,0.00
2018-05-13T02:03:08.214Z,0.00
2018-05-13T02:04:08.700Z,0.00
2018-05-13T02:05:08.120Z,0.00
2018-05-13T02:06:08.094Z,0.00
2018-05-13T02:07:08.070Z,0.00
2018-05-13T02:08:08.041Z,0.00
2018-05-13T02:09:08.080Z,0.00
2018-05-13T02:10:07.988Z,0.00
2018-05-13T02:11:07.961Z,0.00
2018-05-13T02:12:07.940Z,0.00
2018-05-13T02:13:07.924Z,0.00
2018-05-13T02:14:07.958Z,0.00
2018-05-13T02:15:07.888Z,0.00
2018-05-13T02:16:07.842Z,0.00
2018-05-13T02:17:07.862Z,0.00
2018-05-13T02:18:07.787Z,0.00
2018-05-13T02:19:07.767Z,0.00
2018-05-13T02:20:07.739Z,0.00
2018-05-13T02:21:07.723Z,0.00
2018-05-13T02:22:07.728Z,0.00
2018-05-13T02:23:07.668Z,0.00
2018-05-13T02:24:07.644Z,0.00
2018-05-13T02:25:07.607Z,0.00
2018-05-13T02:26:07.627Z,0.00
2018-05-13T02:27:07.557Z,0.00
2018-05-13T02:28:07.536Z,0.00
2018-05-13T02:29:07.516Z,0.00
2018-05-13T02:30:07.485Z,0.00
2018-05-13T02:31:07.501Z,4.00
2018-05-13T02:32:07.429Z,4.00
2018-05-13T02:33:07.458Z,4.00
2018-05-13T02:34:07.416Z,0.00
2018-05-13T02:35:07.354Z,0.00
2018-05-13T02:36:07.339Z,4.00
2018-05-13T02:37:07.303Z,4.00
2018-05-13T02:38:07.326Z,4.00
2018-05-13T02:39:07.305Z,4.00
2018-05-13T02:40:07.225Z,4.00
2018-05-13T02:41:07.248Z,8.00
2018-05-13T02:42:07.175Z,4.00
2018-05-13T02:43:07.189Z,4.00
2018-05-13T02:44:07.131Z,8.00
2018-05-13T02:45:07.100Z,8.00
2018-05-13T02:46:07.133Z,8.00
2018-05-13T02:47:07.047Z,12.00
2018-05-13T02:48:07.022Z,16.00
2018-05-13T02:49:06.998Z,16.00
2018-05-13T02:50:06.970Z,16.00
2018-05-13T02:51:07.003Z,20.00
2018-05-13T02:52:06.925Z,20.00
2018-05-13T02:53:06.899Z,24.00
2018-05-13T02:54:06.870Z,32.00
2018-05-13T02:55:06.841Z,36.00
2018-05-13T02:56:06.863Z,40.00
2018-05-13T02:57:06.801Z,44.00
2018-05-13T02:58:06.767Z,48.00
2018-05-13T02:59:06.739Z,52.00
2018-05-13T03:00:06.716Z,60.00
2018-05-13T03:01:06.733Z,68.00
2018-05-13T03:02:06.710Z,76.00
2018-05-13T03:03:06.641Z,84.00
2018-05-13T03:04:06.617Z,96.00
2018-05-13T03:05:06.589Z,104.00
2018-05-13T03:06:06.564Z,116.00
2018-05-13T03:07:06.585Z,124.00
2018-05-13T03:08:06.560Z,140.00
2018-05-13T03:09:06.539Z,152.00
2018-05-13T03:10:06.463Z,172.00
2018-05-13T03:11:06.436Z,184.00
2018-05-13T03:12:06.414Z,200.00
2018-05-13T03:13:06.384Z,216.00
2018-05-13T03:14:06.421Z,236.00
2018-05-13T03:15:07.155Z,256.00
2018-05-13T03:16:06.364Z,276.00
2018-05-13T03:17:07.146Z,300.00
2018-05-13T03:18:06.257Z,320.00
2018-05-13T03:19:06.729Z,344.00
2018-05-13T03:20:06.206Z,368.00
2018-05-13T03:21:06.222Z,400.00
2018-05-13T03:22:07.149Z,428.00
2018-05-13T03:23:06.128Z,452.00
2018-05-13T03:24:06.110Z,484.00
2018-05-13T03:25:06.135Z,516.00
2018-05-13T03:26:06.054Z,552.00
2018-05-13T03:27:06.036Z,584.00
2018-05-13T03:28:06.643Z,624.00
2018-05-13T03:29:06.020Z,664.00
2018-05-13T03:30:06.012Z,700.00
2018-05-13T03:31:06.646Z,744.00
2018-05-13T03:32:05.897Z,784.00
2018-05-13T03:33:05.886Z,828.00
2018-05-13T03:34:05.851Z,872.00
2018-05-13T03:35:06.215Z,916.00
2018-05-13T03:36:05.811Z,964.00
2018-05-13T03:37:05.778Z,1012.00
2018-05-13T03:38:06.647Z,1064.00
2018-05-13T03:39:05.727Z,1116.00
2018-05-13T03:40:05.749Z,1164.00
2018-05-13T03:41:06.651Z,1220.00
2018-05-13T03:42:05.706Z,1276.00
2018-05-13T03:43:05.630Z,1336.00
2018-05-13T03:44:05.602Z,1392.00
2018-05-13T03:45:05.569Z,1448.00
2018-05-13T03:46:05.597Z,1512.00
2018-05-13T03:47:06.146Z,1576.00
2018-05-13T03:48:05.496Z,1644.00
2018-05-13T03:49:05.472Z,1704.00
2018-05-13T03:50:05.446Z,1772.00
2018-05-13T03:51:05.705Z,1832.00
2018-05-13T03:52:05.403Z,1904.00
2018-05-13T03:53:05.370Z,1976.00
2018-05-13T03:54:06.153Z,2064.00
2018-05-13T03:55:05.321Z,2164.00
2018-05-13T03:56:05.342Z,2232.00
2018-05-13T03:57:05.274Z,2256.00
2018-05-13T03:58:05.245Z,2320.00
2018-05-13T03:59:05.215Z,2380.00
2018-05-13T04:00:06.211Z,2440.00
2018-05-13T04:01:05.189Z,2504.00
2018-05-13T04:02:05.142Z,2568.00
2018-05-13T04:03:05.132Z,2636.00
2018-05-13T04:04:05.665Z,2700.00
2018-05-13T04:05:05.125Z,2780.00
2018-05-13T04:06:05.041Z,2848.00
2018-05-13T04:07:05.019Z,2940.00
2018-05-13T04:08:04.993Z,3052.00
2018-05-13T04:09:04.965Z,3112.00
2018-05-13T04:10:05.209Z,3480.00
2018-05-13T04:11:04.950Z,3468.00
2018-05-13T04:12:04.896Z,3544.00
2018-05-13T04:13:05.652Z,3440.00
2018-05-13T04:14:04.842Z,3396.00
2018-05-13T04:15:04.885Z,3452.00
2018-05-13T04:16:05.663Z,3532.00
2018-05-13T04:17:04.773Z,3620.00
2018-05-13T04:18:05.669Z,3676.00
2018-05-13T04:19:04.724Z,3852.00
2018-05-13T04:20:04.737Z,4096.00
2018-05-13T04:21:05.209Z,3968.00
2018-05-13T04:22:04.648Z,3948.00
2018-05-13T04:23:04.674Z,3976.00
2018-05-13T04:24:04.597Z,4020.00
2018-05-13T04:25:05.157Z,4088.00
2018-05-13T04:26:04.598Z,4152.00
2018-05-13T04:27:04.525Z,4220.00
2018-05-13T04:28:04.500Z,4288.00
2018-05-13T04:29:04.477Z,4344.00
2018-05-13T04:30:04.457Z,4404.00
2018-05-13T04:31:04.503Z,4452.00
2018-05-13T04:32:05.157Z,4516.00
2018-05-13T04:33:04.384Z,4596.00
2018-05-13T04:34:04.402Z,4620.00
2018-05-13T04:35:05.163Z,4680.00
2018-05-13T04:36:04.308Z,4724.00
2018-05-13T04:37:05.157Z,4788.00
2018-05-13T04:38:04.254Z,4844.00
2018-05-13T04:39:04.276Z,4888.00
2018-05-13T04:40:04.206Z,4928.00
2018-05-13T04:41:05.166Z,4968.00
2018-05-13T04:42:04.157Z,5000.00
2018-05-13T04:43:04.659Z,5048.00
2018-05-13T04:44:04.172Z,5076.00
2018-05-13T04:45:04.664Z,5120.00
2018-05-13T04:46:04.065Z,5128.00
2018-05-13T04:47:04.043Z,5172.00
2018-05-13T04:48:04.664Z,5232.00
2018-05-13T04:49:04.035Z,5268.00
2018-05-13T04:50:03.981Z,5320.00
2018-05-13T04:51:03.989Z,5384.00
2018-05-13T04:52:04.667Z,5392.00
2018-05-13T04:53:03.900Z,5456.00
2018-05-13T04:54:03.874Z,5500.00
2018-05-13T04:55:03.843Z,5556.00
2018-05-13T04:56:03.876Z,5568.00
2018-05-13T04:57:03.806Z,5576.00
2018-05-13T04:58:03.779Z,5640.00
2018-05-13T04:59:03.760Z,5984.00
2018-05-13T05:00:04.667Z,6880.00
2018-05-13T05:01:03.763Z,7392.00
2018-05-13T05:02:03.683Z,6636.00
2018-05-13T05:03:03.664Z,7604.00
2018-05-13T05:04:03.631Z,8276.00
2018-05-13T05:05:04.161Z,8108.00
2018-05-13T05:06:03.635Z,7600.00
2018-05-13T05:07:04.163Z,6384.00
2018-05-13T05:08:03.546Z,6276.00
2018-05-13T05:09:03.637Z,6136.00
2018-05-13T05:10:04.169Z,6156.00
2018-05-13T05:11:03.473Z,6372.00
2018-05-13T05:12:04.167Z,6960.00
2018-05-13T05:13:03.427Z,8184.00
2018-05-13T05:14:03.460Z,9308.00
2018-05-13T05:15:04.171Z,9188.00
2018-05-13T05:16:03.367Z,9540.00
2018-05-13T05:17:03.386Z,11616.00
2018-05-13T05:18:03.317Z,13892.00
2018-05-13T05:19:04.171Z,15872.00
2018-05-13T05:20:03.324Z,17312.00
2018-05-13T05:21:03.247Z,15328.00
2018-05-13T05:22:03.266Z,11144.00
2018-05-13T05:23:03.206Z,8136.00
2018-05-13T05:24:03.184Z,7212.00
2018-05-13T05:25:03.227Z,6964.00
2018-05-13T05:26:03.669Z,7744.00
2018-05-13T05:27:03.111Z,8600.00
2018-05-13T05:28:03.091Z,8312.00
2018-05-13T05:29:03.248Z,8632.00
2018-05-13T05:30:03.229Z,8808.00
2018-05-13T05:31:03.023Z,7036.00
2018-05-13T05:32:03.087Z,6564.00
2018-05-13T05:33:02.988Z,6324.00
2018-05-13T05:34:03.670Z,6296.00
2018-05-13T05:35:02.980Z,6316.00
2018-05-13T05:36:02.969Z,6296.00
2018-05-13T05:37:03.673Z,6272.00
2018-05-13T05:38:02.917Z,6272.00
2018-05-13T05:39:02.852Z,6264.00
2018-05-13T05:40:02.826Z,6316.00
2018-05-13T05:41:03.672Z,6304.00
2018-05-13T05:42:02.789Z,6352.00
2018-05-13T05:43:03.232Z,6348.00
2018-05-13T05:44:02.738Z,6376.00
2018-05-13T05:45:03.706Z,6392.00
2018-05-13T05:46:02.700Z,6384.00
2018-05-13T05:47:03.184Z,6396.00
2018-05-13T05:48:02.689Z,6428.00
2018-05-13T05:49:03.173Z,6420.00
2018-05-13T05:50:02.607Z,6440.00
2018-05-13T05:51:02.585Z,6452.00
2018-05-13T05:52:02.743Z,6488.00
2018-05-13T05:53:02.539Z,6484.00
2018-05-13T05:54:03.176Z,6508.00
2018-05-13T05:55:02.493Z,6556.00
2018-05-13T05:56:02.471Z,6556.00
2018-05-13T05:57:02.742Z,6560.00
2018-05-13T05:58:02.429Z,6600.00
2018-05-13T05:59:03.185Z,6592.00
2018-05-13T06:00:02.382Z,6612.00
2018-05-13T06:01:02.377Z,6604.00
2018-05-13T06:02:02.393Z,6592.00
2018-05-13T06:03:05.182Z,6640.00
2018-05-13T06:04:02.291Z,6664.00
2018-05-13T06:05:02.279Z,6660.00
2018-05-13T06:06:02.250Z,6640.00
2018-05-13T06:07:02.321Z,6692.00
2018-05-13T06:08:02.252Z,6696.00
2018-05-13T06:09:02.188Z,6720.00
2018-05-13T06:10:02.163Z,6784.00
2018-05-13T06:11:02.684Z,6792.00
2018-05-13T06:12:02.131Z,6784.00
2018-05-13T06:13:02.226Z,6804.00
2018-05-13T06:14:02.079Z,6840.00
2018-05-13T06:15:02.053Z,6852.00
2018-05-13T06:16:02.685Z,6860.00
2018-05-13T06:17:02.009Z,6888.00
2018-05-13T06:18:02.044Z,6852.00
2018-05-13T06:19:01.973Z,6888.00
2018-05-13T06:20:01.945Z,6868.00
2018-05-13T06:21:01.928Z,6864.00
2018-05-13T06:22:01.910Z,6880.00
2018-05-13T06:23:01.925Z,6924.00
2018-05-13T06:24:01.856Z,6892.00
2018-05-13T06:25:01.881Z,6892.00
2018-05-13T06:26:01.830Z,6912.00
2018-05-13T06:27:02.683Z,6916.00
2018-05-13T06:28:01.827Z,6912.00
2018-05-13T06:29:01.753Z,6940.00
2018-05-13T06:30:01.739Z,6984.00
2018-05-13T06:31:01.706Z,6928.00
2018-05-13T06:32:01.705Z,6932.00
2018-05-13T06:33:01.713Z,6932.00
2018-05-13T06:34:01.655Z,6908.00
2018-05-13T06:35:01.618Z,6928.00
2018-05-13T06:36:01.651Z,6924.00
2018-05-13T06:37:01.578Z,6936.00
2018-05-13T06:38:01.560Z,6936.00
2018-05-13T06:39:01.541Z,6968.00
2018-05-13T06:40:01.514Z,6992.00
2018-05-13T06:41:01.550Z,7032.00
2018-05-13T06:42:01.469Z,7032.00
2018-05-13T06:43:01.490Z,7052.00
2018-05-13T06:44:01.426Z,7080.00
2018-05-13T06:45:01.403Z,7088.00
2018-05-13T06:46:01.380Z,7116.00
2018-05-13T06:47:01.408Z,7108.00
2018-05-13T06:48:01.344Z,7096.00
2018-05-13T06:49:01.318Z,7088.00
2018-05-13T06:50:01.300Z,7080.00
2018-05-13T06:51:01.292Z,7056.00
2018-05-13T06:52:01.307Z,7076.00
2018-05-13T06:53:01.233Z,7044.00
2018-05-13T06:54:01.225Z,7004.00
2018-05-13T06:55:01.200Z,6988.00
2018-05-13T06:56:01.177Z,6988.00
2018-05-13T06:57:01.196Z,6964.00
2018-05-13T06:58:01.178Z,7016.00
2018-05-13T06:59:01.111Z,7032.00
2018-05-13T07:00:01.100Z,7016.00
2018-05-13T07:01:01.095Z,7012.00
2018-05-13T07:02:01.045Z,7012.00
2018-05-13T07:03:01.078Z,7024.00
2018-05-13T07:04:01.000Z,7060.00
2018-05-13T07:05:00.986Z,7080.00
2018-05-13T07:06:00.968Z,7100.00
2018-05-13T07:07:00.979Z,7128.00
2018-05-13T07:08:00.914Z,7120.00
2018-05-13T07:09:00.934Z,7128.00
2018-05-13T07:10:00.874Z,7160.00
2018-05-13T07:11:00.849Z,7148.00
2018-05-13T07:12:00.889Z,7144.00
2018-05-13T07:13:00.862Z,7140.00
2018-05-13T07:14:00.790Z,7168.00
2018-05-13T07:15:00.767Z,7176.00
2018-05-13T07:16:00.748Z,7224.00
2018-05-13T07:17:00.767Z,7232.00
2018-05-13T07:18:00.718Z,7244.00
2018-05-13T07:19:00.681Z,7208.00
2018-05-13T07:20:00.661Z,7208.00
2018-05-13T07:21:00.694Z,7220.00
2018-05-13T07:22:00.627Z,7228.00
2018-05-13T07:23:00.648Z,7236.00
2018-05-13T07:24:00.584Z,7252.00
2018-05-13T07:25:00.558Z,7224.00
2018-05-13T07:26:00.551Z,7176.00
2018-05-13T07:27:00.593Z,7172.00
2018-05-13T07:28:00.498Z,7156.00
2018-05-13T07:29:00.482Z,7152.00
2018-05-13T07:30:00.457Z,7152.00
2018-05-13T07:31:00.440Z,7136.00
2018-05-13T07:32:00.508Z,7124.00
2018-05-13T07:33:00.396Z,7108.00
2018-05-13T07:34:00.378Z,7128.00
2018-05-13T07:35:00.360Z,7152.00
2018-05-13T07:36:00.335Z,7140.00
2018-05-13T07:37:00.356Z,7136.00
2018-05-13T07:38:00.291Z,7112.00
2018-05-13T07:39:00.301Z,7100.00
2018-05-13T07:40:00.255Z,7108.00
2018-05-13T07:41:00.237Z,7144.00
2018-05-13T07:42:00.259Z,7152.00
2018-05-13T07:43:00.190Z,7168.00
2018-05-13T07:44:00.180Z,7172.00
2018-05-13T07:45:00.258Z,7176.00
2018-05-13T07:46:00.127Z,7152.00
2018-05-13T07:47:00.118Z,7176.00
2018-05-13T07:48:00.088Z,7188.00
2018-05-13T07:49:00.071Z,7204.00
2018-05-13T07:50:00.093Z,7200.00
2018-05-13T07:51:00.084Z,7200.00
2018-05-13T07:52:00.009Z,7224.00
2018-05-13T07:52:59.985Z,7236.00
2018-05-13T07:53:59.970Z,7260.00
2018-05-13T07:54:59.994Z,7276.00
2018-05-13T07:55:59.929Z,7284.00
2018-05-13T07:56:59.904Z,7268.00
2018-05-13T07:57:59.907Z,7224.00
2018-05-13T07:58:59.866Z,7220.00
2018-05-13T07:59:59.896Z,7216.00
2018-05-13T08:00:59.824Z,7220.00
2018-05-13T08:01:59.808Z,7196.00
2018-05-13T08:02:59.786Z,7188.00
2018-05-13T08:03:59.761Z,7208.00
2018-05-13T08:04:59.801Z,7216.00
2018-05-13T08:05:59.729Z,7216.00
2018-05-13T08:06:59.753Z,7224.00
2018-05-13T08:07:59.704Z,7204.00
2018-05-13T08:08:59.663Z,7172.00
2018-05-13T08:09:59.643Z,7172.00
2018-05-13T08:10:59.621Z,7152.00
2018-05-13T08:11:59.651Z,7140.00
2018-05-13T08:12:59.584Z,7104.00
2018-05-13T08:13:59.575Z,7100.00
2018-05-13T08:14:59.545Z,7092.00
2018-05-13T08:15:59.525Z,7064.00
2018-05-13T08:16:59.566Z,7048.00
2018-05-13T08:17:59.500Z,7032.00
2018-05-13T08:18:59.461Z,7032.00
2018-05-13T08:19:59.443Z,7004.00
2018-05-13T08:20:59.425Z,7004.00
2018-05-13T08:21:59.456Z,6980.00
2018-05-13T08:22:59.433Z,6936.00
2018-05-13T08:23:59.366Z,6908.00
2018-05-13T08:24:59.344Z,6900.00
2018-05-13T08:25:59.334Z,6868.00
2018-05-13T08:26:59.302Z,6852.00
2018-05-13T08:27:59.334Z,6832.00
2018-05-13T08:28:59.271Z,6816.00
2018-05-13T08:29:59.277Z,6824.00
2018-05-13T08:31:00.219Z,6824.00
2018-05-13T08:31:59.219Z,6812.00
2018-05-13T08:32:59.238Z,6788.00
2018-05-13T08:33:59.233Z,6780.00
2018-05-13T08:34:59.148Z,6748.00
2018-05-13T08:35:59.717Z,6740.00
2018-05-13T08:36:59.109Z,6728.00
2018-05-13T08:37:59.134Z,6716.00
2018-05-13T08:38:59.115Z,6712.00
2018-05-13T08:39:59.049Z,6688.00
2018-05-13T08:40:59.716Z,6640.00
2018-05-13T08:41:59.212Z,6636.00
2018-05-13T08:42:58.992Z,6640.00
2018-05-13T08:43:59.025Z,6616.00
2018-05-13T08:44:59.010Z,6616.00
2018-05-13T08:45:58.935Z,6612.00
2018-05-13T08:46:58.920Z,6612.00
2018-05-13T08:47:58.896Z,6612.00
2018-05-13T08:48:58.879Z,6600.00
2018-05-13T08:49:58.900Z,6620.00
2018-05-13T08:50:59.718Z,6684.00
2018-05-13T08:51:58.818Z,6688.00
2018-05-13T08:52:58.808Z,6656.00
2018-05-13T08:53:58.802Z,6640.00
2018-05-13T08:54:58.847Z,6652.00
2018-05-13T08:55:58.741Z,6636.00
2018-05-13T08:56:58.728Z,6616.00
2018-05-13T08:57:58.706Z,6592.00
2018-05-13T08:58:58.686Z,6592.00
2018-05-13T08:59:58.750Z,6612.00
2018-05-13T09:00:58.649Z,6620.00
2018-05-13T09:01:58.628Z,6596.00
2018-05-13T09:02:58.608Z,6592.00
2018-05-13T09:03:58.587Z,6604.00
2018-05-13T09:04:58.621Z,6600.00
2018-05-13T09:05:58.553Z,6596.00
2018-05-13T09:06:58.585Z,6572.00
2018-05-13T09:08:00.129Z,6528.00
2018-05-13T09:08:58.495Z,6528.00
2018-05-13T09:09:58.476Z,6504.00
2018-05-13T09:10:58.542Z,6464.00
2018-05-13T09:11:58.436Z,6472.00
2018-05-13T09:12:58.418Z,6436.00
2018-05-13T09:13:58.402Z,6416.00
2018-05-13T09:14:58.377Z,6404.00
2018-05-13T09:15:58.404Z,6308.00
2018-05-13T09:16:58.385Z,6244.00
2018-05-13T09:17:58.322Z,6200.00
2018-05-13T09:18:58.297Z,6228.00
2018-05-13T09:19:58.281Z,6224.00
2018-05-13T09:20:59.172Z,6244.00
2018-05-13T09:21:58.287Z,6304.00
2018-05-13T09:22:58.226Z,6324.00
2018-05-13T09:23:58.208Z,6324.00
2018-05-13T09:24:58.185Z,6308.00
2018-05-13T09:25:58.164Z,6308.00
2018-05-13T09:26:58.194Z,6304.00
2018-05-13T09:27:58.126Z,6308.00
2018-05-13T09:28:58.109Z,6276.00
2018-05-13T09:29:58.089Z,6220.00
2018-05-13T09:30:58.068Z,6152.00
2018-05-13T09:31:58.126Z,6028.00
2018-05-13T09:32:58.070Z,5976.00
2018-05-13T09:33:58.017Z,5932.00
2018-05-13T09:34:57.992Z,5912.00
2018-05-13T09:35:57.973Z,5908.00
2018-05-13T09:36:58.002Z,5900.00
2018-05-13T09:37:57.933Z,5904.00
2018-05-13T09:38:57.917Z,5844.00
2018-05-13T09:39:57.900Z,5864.00
2018-05-13T09:40:57.890Z,5884.00
2018-05-13T09:41:57.921Z,5864.00
2018-05-13T09:42:57.899Z,5776.00
2018-05-13T09:43:57.829Z,5740.00
2018-05-13T09:44:57.804Z,5688.00
2018-05-13T09:45:57.805Z,5660.00
2018-05-13T09:46:57.770Z,5688.00
2018-05-13T09:47:57.794Z,5692.00
2018-05-13T09:48:57.736Z,5636.00
2018-05-13T09:49:57.710Z,5648.00
2018-05-13T09:50:57.796Z,5652.00
2018-05-13T09:51:57.678Z,5628.00
2018-05-13T09:52:57.716Z,5604.00
2018-05-13T09:53:57.634Z,5572.00
2018-05-13T09:54:57.620Z,5544.00
2018-05-13T09:55:57.601Z,5576.00
2018-05-13T09:56:57.711Z,5584.00
2018-05-13T09:57:57.602Z,5580.00
2018-05-13T09:58:57.678Z,5592.00
2018-05-13T09:59:57.530Z,5600.00
2018-05-13T10:00:58.242Z,5596.00
2018-05-13T10:01:57.493Z,5584.00
2018-05-13T10:02:57.473Z,5548.00
2018-05-13T10:03:57.521Z,5528.00
2018-05-13T10:04:57.429Z,5552.00
2018-05-13T10:05:57.421Z,5540.00
2018-05-13T10:06:57.388Z,5544.00
2018-05-13T10:07:58.240Z,5560.00
2018-05-13T10:08:57.411Z,5584.00
2018-05-13T10:09:57.333Z,5628.00
2018-05-13T10:10:57.316Z,5644.00
2018-05-13T10:11:58.146Z,5644.00
2018-05-13T10:12:58.245Z,5664.00
2018-05-13T10:13:57.300Z,5644.00
2018-05-13T10:14:57.237Z,5632.00
2018-05-13T10:15:57.263Z,5628.00
2018-05-13T10:16:57.209Z,5624.00
2018-05-13T10:17:57.185Z,5628.00
2018-05-13T10:18:57.163Z,5640.00
2018-05-13T10:19:57.194Z,5652.00
2018-05-13T10:20:57.136Z,5676.00
2018-05-13T10:21:57.113Z,5704.00
2018-05-13T10:22:57.097Z,5724.00
2018-05-13T10:23:57.082Z,5748.00
2018-05-13T10:24:57.334Z,5744.00
2018-05-13T10:25:57.081Z,5716.00
2018-05-13T10:26:57.016Z,5708.00
2018-05-13T10:27:57.001Z,5680.00
2018-05-13T10:28:56.980Z,5644.00
2018-05-13T10:29:56.962Z,5624.00
2018-05-13T10:30:56.989Z,5592.00
2018-05-13T10:31:56.927Z,5580.00
2018-05-13T10:32:56.905Z,5552.00
2018-05-13T10:33:56.892Z,5524.00
2018-05-13T10:34:56.866Z,5504.00
2018-05-13T10:35:56.888Z,5468.00
2018-05-13T10:36:56.845Z,5440.00
2018-05-13T10:37:56.814Z,5432.00
2018-05-13T10:38:56.795Z,5420.00
2018-05-13T10:39:56.852Z,5392.00
2018-05-13T10:40:56.755Z,5388.00
2018-05-13T10:41:56.805Z,5404.00
2018-05-13T10:42:56.728Z,5388.00
2018-05-13T10:43:56.706Z,5372.00
2018-05-13T10:44:56.683Z,5360.00
2018-05-13T10:45:56.665Z,5360.00
2018-05-13T10:46:56.703Z,5312.00
2018-05-13T10:47:56.718Z,5272.00
2018-05-13T10:48:56.634Z,5232.00
2018-05-13T10:49:56.597Z,5188.00
2018-05-13T10:50:56.569Z,5172.00
2018-05-13T10:51:56.613Z,5100.00
2018-05-13T10:52:56.535Z,5060.00
2018-05-13T10:53:56.544Z,5056.00
2018-05-13T10:54:56.508Z,5060.00
2018-05-13T10:55:56.479Z,5076.00
2018-05-13T10:56:56.509Z,5052.00
2018-05-13T10:57:56.447Z,5012.00
2018-05-13T10:58:56.424Z,5008.00
2018-05-13T10:59:56.455Z,5016.00
2018-05-13T11:00:56.393Z,5024.00
2018-05-13T11:01:56.383Z,5016.00
2018-05-13T11:02:56.396Z,5000.00
2018-05-13T11:03:56.369Z,4976.00
2018-05-13T11:04:56.357Z,4948.00
2018-05-13T11:05:56.311Z,4916.00
2018-05-13T11:06:56.287Z,4912.00
2018-05-13T11:07:56.323Z,4908.00
2018-05-13T11:08:56.243Z,4912.00
2018-05-13T11:09:56.273Z,4892.00
2018-05-13T11:10:56.257Z,4892.00
2018-05-13T11:11:56.265Z,4896.00
2018-05-13T11:12:56.169Z,4900.00
2018-05-13T11:13:56.162Z,4908.00
2018-05-13T11:14:56.191Z,4924.00
2018-05-13T11:15:56.114Z,4948.00
2018-05-13T11:16:56.098Z,4976.00
2018-05-13T11:17:56.087Z,4996.00
2018-05-13T11:18:56.108Z,4996.00
2018-05-13T11:19:56.042Z,4992.00
2018-05-13T11:20:56.023Z,5012.00
2018-05-13T11:21:56.014Z,5040.00
2018-05-13T11:22:55.990Z,5060.00
2018-05-13T11:23:56.016Z,5044.00
2018-05-13T11:24:55.953Z,5028.00
2018-05-13T11:25:55.946Z,5000.00
2018-05-13T11:26:55.942Z,4964.00
2018-05-13T11:27:55.900Z,4948.00
2018-05-13T11:28:55.928Z,4940.00
2018-05-13T11:29:55.859Z,4924.00
2018-05-13T11:30:55.842Z,4920.00
2018-05-13T11:31:55.826Z,4920.00
2018-05-13T11:32:55.849Z,4912.00
2018-05-13T11:33:55.842Z,4896.00
2018-05-13T11:34:55.772Z,4900.00
2018-05-13T11:35:55.755Z,4892.00
2018-05-13T11:36:55.819Z,4892.00
2018-05-13T11:37:55.716Z,4912.00
2018-05-13T11:38:55.696Z,4912.00
2018-05-13T11:39:55.782Z,4908.00
2018-05-13T11:40:55.657Z,4912.00
2018-05-13T11:41:55.704Z,4908.00
2018-05-13T11:42:55.626Z,4900.00
2018-05-13T11:43:55.692Z,4900.00
2018-05-13T11:44:55.592Z,4884.00
2018-05-13T11:45:55.571Z,4884.00
2018-05-13T11:46:55.556Z,4868.00
2018-05-13T11:47:55.594Z,4852.00
2018-05-13T11:48:55.520Z,4848.00
2018-05-13T11:49:55.503Z,4860.00
2018-05-13T11:50:55.482Z,4856.00
2018-05-13T11:51:55.470Z,4852.00
2018-05-13T11:52:55.489Z,4856.00
2018-05-13T11:53:55.428Z,4852.00
2018-05-13T11:54:55.405Z,4844.00
2018-05-13T11:55:55.444Z,4832.00
2018-05-13T11:56:55.381Z,4832.00
2018-05-13T11:57:55.355Z,4816.00
2018-05-13T11:58:55.418Z,4808.00
2018-05-13T11:59:55.364Z,4796.00
2018-05-13T12:00:55.318Z,4784.00
2018-05-13T12:01:55.306Z,4788.00
2018-05-13T12:02:55.349Z,4784.00
2018-05-13T12:03:55.248Z,4776.00
2018-05-13T12:04:55.236Z,4768.00
2018-05-13T12:05:55.304Z,4760.00
2018-05-13T12:06:55.206Z,4760.00
2018-05-13T12:07:55.221Z,4748.00
2018-05-13T12:08:55.155Z,4740.00
2018-05-13T12:09:55.138Z,4724.00
2018-05-13T12:10:55.132Z,4708.00
2018-05-13T12:11:55.174Z,4684.00
2018-05-13T12:12:55.085Z,4660.00
2018-05-13T12:13:55.073Z,4632.00
2018-05-13T12:14:55.051Z,4612.00
2018-05-13T12:15:55.077Z,4608.00
2018-05-13T12:16:55.036Z,4608.00
2018-05-13T12:17:54.993Z,4612.00
2018-05-13T12:18:55.016Z,4616.00
2018-05-13T12:19:54.964Z,4624.00
2018-05-13T12:20:54.994Z,4628.00
2018-05-13T12:21:54.984Z,4608.00